Latest Weather Observations for Coonawarra

IDS60801

Issued at 9:31 pm CST Thursday 24 September 2020 (issued every 10 minutes, with the page automatically refreshed every 10 minutes)

About weather observations | Map of weather stations | Latest weather observations for SA | Other Formats
Station Details ID: 026091 Name: COONAWARRA Lat: -37.29 Lon: 140.83 Height: 57.0 m
Data from the previous 72 hours. | See also: Recent months at Coonawarra
Date/Time
CST
Temp
°C
App
Temp
°C
Dew
Point
°C
Rel
Hum
%
Delta-T
°C
Wind Press
QNH
hPa
Press
MSL
hPa
Rain since
9am
mm
Dir  Spd
km/h
Gust
km/h
Spd
kts
Gust
kts
24/09:30pm 6.4 3.7 5.5 94 0.4 NW 9 11 5 6 1005.9 1005.9 16.0
24/09:00pm 7.0 4.0 5.9 93 0.5 WSW 11 15 6 8 1006.0 1006.0 15.8
24/08:30pm 7.5 3.6 6.9 96 0.3 W 17 26 9 14 1006.2 1006.2 15.8
24/08:00pm 8.0 5.3 7.4 96 0.3 WNW 11 13 6 7 1006.2 1006.2 15.4
24/07:30pm 8.3 6.0 7.5 95 0.4 WNW 9 11 5 6 1006.1 1006.1 15.4
24/07:00pm 8.3 5.7 7.7 96 0.3 WNW 11 15 6 8 1005.7 1005.7 15.4
24/06:30pm 8.4 6.5 7.6 95 0.4 NW 7 9 4 5 1005.6 1005.6 15.4
24/06:00pm 8.5 6.3 7.7 95 0.4 W 9 15 5 8 1005.7 1005.7 14.8
24/05:30pm 8.4 6.5 7.6 95 0.4 NW 7 9 4 5 1005.8 1005.8 13.6
24/05:00pm 8.4 4.5 6.9 90 0.7 NNW 17 20 9 11 1005.9 1005.9 13.2
24/04:30pm 8.6 4.7 7.1 90 0.7 NNW 17 26 9 14 1006.1 1006.1 12.0
24/04:00pm 8.4 4.4 6.7 89 0.8 NW 17 24 9 13 1006.5 1006.5 11.8
24/03:30pm 8.5 3.6 6.8 89 0.8 WNW 22 32 12 17 1006.9 1006.9 11.6
24/03:00pm 9.3 2.5 6.7 84 1.2 NW 32 54 17 29 1007.0 1007.0 11.0
24/02:45pm 10.7 4.7 6.9 77 1.8 NNW 28 59 15 32 1006.8 1006.8 10.0
24/02:44pm 10.9 4.8 6.7 75 2.0 NNW 28 59 15 32 1006.8 1006.8 10.0
24/02:30pm 10.8 6.5 7.9 82 1.4 NNW 20 26 11 14 1006.9 1006.9 10.0
24/02:00pm 9.3 2.0 7.4 88 0.9 NNW 35 57 19 31 1007.8 1007.8 9.8
24/01:53pm 10.9 7.3 8.3 84 1.3 NW 17 50 9 27 1007.7 1007.7 8.8
24/01:30pm 10.9 5.4 7.6 80 1.6 NNW 26 39 14 21 1008.0 1008.0 7.4
24/01:00pm 12.2 6.1 6.6 68 2.7 NNW 28 43 15 23 1008.6 1008.6 7.2
24/12:59pm 12.3 6.1 6.2 66 2.9 NNW 28 43 15 23 1008.6 1008.6 7.2
24/12:30pm 9.8 7.2 7.7 87 1.0 NW 11 19 6 10 1009.7 1009.7 7.2
24/12:00pm 7.9 4.5 5.9 87 0.9 WNW 13 24 7 13 1010.2 1010.2 6.6
24/11:30am 10.4 5.3 7.5 82 1.4 NNW 24 33 13 18 1010.9 1010.9 0.6
24/11:00am 11.9 5.7 6.2 68 2.7 N 28 39 15 21 1011.4 1011.4 0.0
24/10:30am 11.7 5.8 7.4 75 2.1 NNW 28 35 15 19 1012.1 1012.1 0.0
24/10:00am 10.9 4.4 6.7 75 2.0 NNW 30 39 16 21 1012.8 1012.8 0.0
24/09:30am 10.8 4.7 6.8 76 1.9 NNW 28 39 15 21 1013.1 1013.1 0.0
24/09:00am 10.3 5.7 6.5 77 1.8 NNW 20 30 11 16 1013.3 1013.3 1.4
24/08:30am 9.2 4.6 6.6 84 1.2 N 20 30 11 16 1013.5 1013.5 1.4
24/08:00am 8.4 3.8 5.8 84 1.2 N 19 26 10 14 1013.6 1013.6 1.4
24/07:30am 7.9 3.7 5.9 87 0.9 N 17 26 9 14 1013.9 1013.9 1.4
24/07:00am 6.6 3.0 5.2 91 0.6 NNW 13 17 7 9 1014.0 1014.0 1.4
24/06:30am 5.8 2.2 4.9 94 0.4 N 13 20 7 11 1014.1 1014.1 1.4
24/06:00am 5.3 0.9 4.6 95 0.3 N 17 20 9 11 1014.1 1014.1 1.4
24/05:30am 4.6 0.8 3.9 95 0.3 N 13 15 7 8 1014.1 1014.1 1.4
24/05:00am 4.7 1.0 4.2 97 0.2 N 13 17 7 9 1014.2 1014.2 1.4
24/04:30am 5.0 2.0 4.3 95 0.3 N 9 13 5 7 1014.3 1014.3 1.4
24/04:00am 4.2 0.4 3.7 97 0.2 NNW 13 15 7 8 1014.6 1014.6 1.4
24/03:30am 4.8 1.4 4.1 95 0.3 N 11 13 6 7 1014.6 1014.6 1.4
24/03:00am 5.0 2.6 4.5 97 0.2 NNW 6 9 3 5 1014.9 1014.9 1.4
24/02:30am 5.1 2.2 4.4 95 0.3 N 9 11 5 6 1015.1 1015.1 1.4
24/02:00am 5.6 3.2 5.1 97 0.2 N 7 9 4 5 1015.4 1015.4 1.4
24/01:30am 6.0 4.6 5.5 97 0.2 NNW 2 6 1 3 1015.8 1015.8 1.4
24/01:00am 5.6 2.4 4.9 95 0.3 NW 11 15 6 8 1016.3 1016.3 1.4
24/12:30am 5.8 3.4 5.1 95 0.3 NNW 7 9 4 5 1016.3 1016.3 1.4
24/12:00am 6.0 3.8 5.3 95 0.3 WNW 6 9 3 5 1016.7 1016.8 1.4
 
Date/Time
CST
Temp
°C
App
Temp
°C
Dew
Point
°C
Rel
Hum
%
Delta-T
°C
Wind Press
QNH
hPa
Press
MSL
hPa
Rain since
9am
mm
Dir  Spd
km/h
Gust
km/h
Spd
kts
Gust
kts
23/11:30pm 6.1 3.3 5.2 94 0.4 NNW 9 13 5 7 1016.9 1017.0 1.4
23/11:00pm 6.6 3.9 5.7 94 0.4 NW 9 11 5 6 1017.1 1017.2 1.4
23/10:30pm 7.2 5.2 6.1 93 0.5 WNW 6 7 3 4 1017.2 1017.3 1.4
23/10:00pm 6.6 3.1 5.5 93 0.5 WNW 13 19 7 10 1017.6 1017.7 1.4
23/09:30pm 6.8 4.2 5.9 94 0.4 W 9 11 5 6 1017.4 1017.5 1.4
23/09:00pm 7.6 4.3 6.5 93 0.5 WSW 13 20 7 11 1017.6 1017.7 1.4
23/08:30pm 7.1 4.1 6.2 94 0.4 W 11 13 6 7 1017.6 1017.7 1.4
23/08:00pm 6.7 4.0 5.8 94 0.4 W 9 11 5 6 1017.4 1017.5 1.4
23/07:30pm 7.6 5.0 6.1 90 0.7 W 9 13 5 7 1017.3 1017.4 1.4
23/07:00pm 7.5 4.9 6.0 90 0.7 WSW 9 11 5 6 1017.1 1017.2 1.2
23/06:30pm 8.3 4.9 6.1 86 1.0 WSW 13 19 7 10 1016.8 1016.9 1.2
23/06:00pm 9.4 6.2 6.8 84 1.2 SW 13 19 7 10 1016.6 1016.7 1.2
23/05:30pm 10.5 6.3 5.5 71 2.3 WSW 17 22 9 12 1016.2 1016.2 1.2
23/05:00pm 11.3 6.6 5.9 69 2.5 WSW 20 28 11 15 1016.1 1016.1 1.2
23/04:30pm 11.3 6.1 5.7 68 2.6 SW 22 32 12 17 1015.7 1015.7 1.2
23/04:00pm 11.6 6.0 5.3 65 2.9 WSW 24 35 13 19 1015.5 1015.5 1.2
23/03:30pm 11.5 6.7 5.4 66 2.8 SW 20 30 11 16 1015.3 1015.3 1.2
23/03:00pm 11.6 6.5 5.8 67 2.7 WSW 22 33 12 18 1015.3 1015.3 1.2
23/02:30pm 11.9 6.4 5.7 66 2.9 WSW 24 33 13 18 1015.1 1015.1 1.2
23/02:00pm 11.2 5.0 6.3 72 2.3 WSW 28 44 15 24 1015.0 1015.0 1.2
23/01:30pm 11.6 6.0 7.0 73 2.2 SW 26 33 14 18 1015.0 1015.0 1.2
23/01:00pm 12.0 6.0 7.2 72 2.3 SW 28 35 15 19 1015.0 1015.0 1.2
23/12:30pm 11.4 6.7 7.7 78 1.8 SW 22 32 12 17 1015.0 1015.0 1.2
23/12:00pm 11.3 6.4 8.5 83 1.4 WSW 24 43 13 23 1015.1 1015.1 0.8
23/11:30am 10.5 4.8 8.5 87 1.0 SW 28 43 15 23 1015.2 1015.2 0.6
23/11:00am 12.0 7.5 8.6 80 1.7 SW 22 30 12 16 1015.1 1015.1 0.6
23/10:30am 11.8 7.3 8.6 81 1.6 SW 22 30 12 16 1015.2 1015.2 0.6
23/10:00am 11.3 8.1 8.5 83 1.4 SW 15 22 8 12 1015.2 1015.2 0.6
23/09:30am 11.9 8.3 8.5 80 1.7 SW 17 28 9 15 1015.2 1015.2 0.0
23/09:00am 11.4 7.9 8.6 83 1.4 WSW 17 28 9 15 1015.0 1015.0 2.6
23/08:30am 10.3 6.4 8.5 89 0.9 W 19 26 10 14 1015.0 1015.0 2.6
23/08:00am 9.7 7.3 8.5 92 0.6 WNW 11 19 6 10 1014.7 1014.7 2.6
23/07:30am 9.0 6.9 8.2 95 0.4 WNW 9 13 5 7 1014.6 1014.6 2.6
23/07:00am 8.2 5.9 7.6 96 0.3 NW 9 15 5 8 1014.2 1014.2 2.6
23/06:30am 7.2 4.7 6.5 95 0.3 NNW 9 11 5 6 1013.7 1013.7 2.6
23/06:00am 7.5 4.6 6.6 94 0.4 NW 11 13 6 7 1013.4 1013.4 2.6
23/05:30am 7.8 4.6 6.9 94 0.4 WNW 13 19 7 10 1013.0 1013.0 2.6
23/05:00am 6.6 4.0 5.9 95 0.3 NW 9 11 5 6 1012.8 1012.8 2.6
23/04:30am 6.9 3.9 6.2 95 0.3 NNW 11 13 6 7 1012.4 1012.4 2.6
23/04:00am 7.3 4.4 6.4 94 0.4 NW 11 13 6 7 1012.2 1012.2 2.4
23/03:30am 7.3 4.4 6.6 95 0.3 NW 11 13 6 7 1012.1 1012.1 2.4
23/03:00am 6.9 3.5 5.8 93 0.5 NNW 13 15 7 8 1012.0 1012.0 2.4
23/02:30am 7.0 4.0 6.1 94 0.4 N 11 15 6 8 1012.0 1012.0 2.4
23/02:00am 8.4 5.4 7.6 95 0.4 NW 13 17 7 9 1012.1 1012.1 2.4
23/01:30am 7.3 4.0 6.4 94 0.4 NNW 13 17 7 9 1012.3 1012.3 2.4
23/01:00am 7.2 4.3 6.3 94 0.4 NNW 11 13 6 7 1012.4 1012.4 2.4
23/12:30am 7.0 4.7 5.9 93 0.5 NNW 7 11 4 6 1012.5 1012.5 2.4
23/12:00am 7.2 3.8 6.1 93 0.5 NNW 13 17 7 9 1012.4 1012.4 2.4
 
Date/Time
CST
Temp
°C
App
Temp
°C
Dew
Point
°C
Rel
Hum
%
Delta-T
°C
Wind Press
QNH
hPa
Press
MSL
hPa
Rain since
9am
mm
Dir  Spd
km/h
Gust
km/h
Spd
kts
Gust
kts
22/11:30pm 7.2 3.5 6.1 93 0.5 NNW 15 20 8 11 1012.3 1012.3 2.4
22/11:00pm 7.6 4.3 6.3 91 0.6 NNW 13 17 7 9 1012.4 1012.4 2.4
22/10:30pm 7.7 4.0 6.2 90 0.7 NNW 15 17 8 9 1012.5 1012.5 2.4
22/10:00pm 8.9 5.4 7.0 88 0.9 NW 15 19 8 10 1012.7 1012.7 2.4
22/09:30pm 8.7 5.2 7.0 89 0.8 NW 15 17 8 9 1012.5 1012.5 2.4
22/09:00pm 9.2 5.7 7.3 88 0.9 NW 15 20 8 11 1012.5 1012.5 2.4
22/08:30pm 9.5 5.7 7.6 88 0.9 NW 17 20 9 11 1012.3 1012.3 2.4
22/08:00pm 10.1 6.4 8.0 87 1.0 WNW 17 20 9 11 1012.0 1012.0 2.4
22/07:30pm 10.5 6.8 8.0 84 1.2 WNW 17 22 9 12 1011.8 1011.8 2.4
22/07:00pm 10.9 7.1 7.6 80 1.6 WNW 17 22 9 12 1011.3 1011.3 2.4
22/06:30pm 11.4 6.6 7.5 77 1.9 WNW 22 32 12 17 1010.9 1010.9 2.4
22/06:00pm 11.9 6.8 7.6 75 2.1 WNW 24 33 13 18 1010.6 1010.6 2.4
22/05:49pm 12.4 6.5 7.5 72 2.4 WNW 28 46 15 25 1010.4 1010.4 2.4
22/05:30pm 12.2 8.1 8.6 78 1.8 NW 20 30 11 16 1010.2 1010.2 2.4
22/05:00pm 13.1 8.0 7.8 70 2.6 WNW 24 37 13 20 1010.0 1010.0 2.4
22/04:30pm 13.3 8.1 7.4 67 2.9 WNW 24 35 13 19 1009.4 1009.4 2.4
22/04:00pm 13.7 6.6 5.7 58 3.8 W 32 43 17 23 1009.1 1009.1 2.4
22/03:30pm 14.7 8.1 6.2 56 4.1 W 30 44 16 24 1008.8 1008.8 2.4
22/03:00pm 14.8 7.7 5.6 54 4.4 WNW 32 50 17 27 1008.6 1008.6 2.4
22/02:57pm 14.5 7.7 6.7 59 3.8 WNW 32 50 17 27 1008.7 1008.7 2.4
22/02:30pm 15.5 8.1 4.9 49 5.0 W 33 44 18 24 1008.3 1008.3 2.4
22/02:00pm 14.6 7.6 6.8 59 3.8 W 33 46 18 25 1008.1 1008.1 2.4
22/01:32pm 15.1 7.7 6.7 57 4.1 W 35 54 19 29 1007.9 1007.9 2.4
22/01:30pm 14.9 7.2 7.2 60 3.8 W 37 54 20 29 1007.9 1007.9 2.4
22/01:08pm 14.3 8.0 7.4 63 3.4 WSW 30 48 16 26 1007.6 1007.6 2.4
22/01:00pm 13.9 7.8 8.1 68 2.9 WSW 30 41 16 22 1007.5 1007.5 2.4
22/12:32pm 14.5 7.4 7.9 64 3.3 W 35 54 19 29 1007.0 1007.0 2.4
22/12:30pm 14.7 7.7 8.4 66 3.2 W 35 50 19 27 1006.9 1006.9 2.4
22/12:04pm 13.5 5.6 9.2 75 2.2 W 41 59 22 32 1006.7 1006.7 2.4
22/12:00pm 12.8 4.3 8.4 74 2.2 W 43 59 23 32 1006.5 1006.5 2.4
22/11:44am 14.4 7.8 8.7 68 2.9 W 33 54 18 29 1006.0 1006.0 2.4
22/11:30am 14.3 6.4 9.2 71 2.6 W 41 56 22 30 1005.8 1005.8 2.4
22/11:19am 13.8 6.3 9.3 74 2.3 W 39 63 21 34 1005.6 1005.6 2.4
22/11:00am 13.1 5.3 9.6 79 1.8 WNW 41 67 22 36 1005.2 1005.3 2.4
22/10:39am 14.0 6.4 9.1 72 2.5 WNW 39 70 21 38 1004.9 1005.0 2.4
22/10:30am 13.9 7.4 10.5 80 1.8 WNW 35 48 19 26 1004.7 1004.8 2.4
22/10:00am 13.4 5.5 9.3 76 2.1 WNW 41 59 22 32 1004.4 1004.5 2.2
22/09:53am 12.1 5.6 10.2 88 1.0 WNW 35 56 19 30 1004.5 1004.6 2.2
22/09:42am 11.7 4.4 10.1 90 0.8 WNW 39 54 21 29 1004.4 1004.5 1.6
22/09:32am 12.7 5.2 9.6 81 1.6 NW 39 57 21 31 1004.3 1004.4 0.0
22/09:30am 13.2 5.9 10.1 81 1.6 NW 39 56 21 30 1004.3 1004.4 0.0
22/09:10am 13.0 5.5 9.5 79 1.8 NW 39 61 21 33 1004.1 1004.2 0.0
22/09:00am 12.5 6.2 9.8 83 1.4 NW 33 46 18 25 1004.3 1004.4 8.0
22/08:31am 9.5 2.9 7.8 89 0.8 NW 32 50 17 27 1004.2 1004.3 7.8
22/08:30am 9.5 2.7 7.8 89 0.8 NW 33 50 18 27 1004.2 1004.3 7.8
22/08:14am 9.7 3.1 7.8 88 0.9 NW 32 54 17 29 1004.4 1004.5 7.2
22/08:00am 11.0 4.8 9.2 89 0.9 NNW 32 46 17 25 1003.8 1003.9 4.2
22/07:48am 11.2 5.8 9.4 89 0.9 NNW 28 50 15 27 1003.7 1003.8 3.6
22/07:30am 10.7 6.7 9.1 90 0.8 NW 20 33 11 18 1003.7 1003.8 3.4
22/07:00am 10.4 5.5 8.4 87 1.0 NNW 24 35 13 19 1003.5 1003.6 3.0
22/06:30am 10.1 4.2 7.6 84 1.2 NNW 28 39 15 21 1003.4 1003.5 3.0
22/06:00am 10.1 5.2 8.5 90 0.8 NW 24 35 13 19 1003.4 1003.5 3.0
22/05:30am 9.6 5.7 8.6 93 0.5 NNW 19 26 10 14 1003.2 1003.3 2.8
22/05:00am 9.7 5.6 8.7 93 0.5 NNW 20 28 11 15 1003.1 1003.2 2.6
22/04:30am 9.8 6.3 8.6 92 0.6 NNW 17 22 9 12 1002.8 1002.9 1.6
22/04:00am 9.7 6.1 8.5 92 0.6 NNW 17 26 9 14 1002.8 1002.9 1.4
22/03:30am 9.9 4.4 7.6 85 1.1 NNW 26 41 14 22 1002.8 1002.9 1.4
22/03:00am 9.9 5.6 7.8 87 1.0 NNW 20 32 11 17 1002.9 1003.0 1.0
22/02:30am 10.2 5.6 8.2 87 1.0 NNW 22 35 12 19 1003.1 1003.2 1.0
22/02:00am 10.2 5.6 8.2 87 1.0 NNW 22 32 12 17 1003.2 1003.3 0.8
22/01:30am 10.4 5.0 7.9 84 1.2 NNW 26 41 14 22 1003.4 1003.5 0.8
22/01:00am 10.2 5.4 8.8 91 0.7 NNW 24 33 13 18 1003.6 1003.7 0.8
22/12:30am 9.9 5.4 8.7 92 0.6 NNW 22 35 12 19 1003.7 1003.8 0.4
22/12:00am 9.5 6.1 7.8 89 0.8 N 15 20 8 11 1003.7 1003.8 0.4
 
Date/Time
CST
Temp
°C
App
Temp
°C
Dew
Point
°C
Rel
Hum
%
Delta-T
°C
Wind Press
QNH
hPa
Press
MSL
hPa
Rain since
9am
mm
Dir  Spd
km/h
Gust
km/h
Spd
kts
Gust
kts
21/11:30pm 9.8 6.1 7.9 88 0.9 NNW 17 20 9 11 1003.7 1003.8 0.4
21/11:00pm 10.2 5.9 7.9 86 1.1 NW 20 26 11 14 1003.9 1004.0 0.4
21/10:30pm 10.9 6.3 8.0 82 1.4 NNW 22 30 12 16 1003.8 1003.9 0.4
21/10:00pm 11.4 6.0 8.2 81 1.6 NW 26 39 14 21 1004.0 1004.1 0.4

Other formats

Comma delimited format used in spreadsheet applications
http://www.bom.gov.au/fwo/IDS60801/IDS60801.94817.axf

JavaScript Object Notation format (JSON) in row-major order
http://www.bom.gov.au/fwo/IDS60801/IDS60801.94817.json

Data quality

Most of these data are generated automatically and are frequently updated. Quality checks on data are not normally performed. It is possible for incorrect values to appear. Refer to information at About Latest Weather Observations and please check the disclaimer before using these data.